Time;durP1;ratioP1;P1;durP2;ratioP2;P2;SDS_P1;SDS_P2;PMS_P1;PMS_P2;Temp;Humidity;BMP_temperature;BMP_pressure;BME280_temperature;BME280_humidity;BME280_pressure;Samples;Min_cycle;Max_cycle;Signal;HPM_P1;HPM_P2
2022/05/26 00:01:21;;;;;;;59.70;3.07;;;;;;;;;;5073929;28;20444;-83
2022/05/26 00:03:49;;;;;;;59.33;3.10;;;;;;;;;;5073898;28;20462;-83
2022/05/26 00:06:18;;;;;;;58.90;2.80;;;;;;;;;;5073592;28;20506;-83
2022/05/26 00:08:46;;;;;;;59.13;3.00;;;;;;;;;;5073459;28;20446;-83
2022/05/26 00:11:14;;;;;;;59.07;2.97;;;;;;;;;;5073364;28;20451;-84
2022/05/26 00:13:43;;;;;;;59.87;4.17;;;;;;;;;;5073523;28;20482;-83
2022/05/26 00:16:11;;;;;;;59.43;3.77;;;;;;;;;;5074350;28;20463;-83
2022/05/26 00:18:38;;;;;;;60.00;3.67;;;;;;;;;;5073003;28;20455;-83
2022/05/26 00:21:06;;;;;;;60.53;4.13;;;;;;;;;;5073849;28;20460;-83
2022/05/26 00:23:34;;;;;;;59.07;3.10;;;;;;;;;;5073321;28;20443;-83
2022/05/26 00:26:01;;;;;;;58.97;3.13;;;;;;;;;;5073410;28;20447;-84
2022/05/26 00:28:30;;;;;;;58.87;3.00;;;;;;;;;;5072996;28;20476;-83
2022/05/26 00:30:58;;;;;;;59.60;3.57;;;;;;;;;;5072381;28;20439;-83
2022/05/26 00:33:26;;;;;;;58.97;3.13;;;;;;;;;;5072598;28;20498;-84
2022/05/26 00:35:53;;;;;;;59.03;3.00;;;;;;;;;;5073036;28;20451;-84
2022/05/26 00:38:20;;;;;;;59.50;3.23;;;;;;;;;;5072960;28;20459;-83
2022/05/26 00:40:48;;;;;;;63.00;4.10;;;;;;;;;;5073271;28;20968;-83
2022/05/26 00:43:15;;;;;;;59.30;3.27;;;;;;;;;;5074907;28;20453;-83
2022/05/26 00:45:45;;;;;;;59.07;3.00;;;;;;;;;;5078206;28;20442;-83
2022/05/26 00:48:16;;;;;;;59.07;2.93;;;;;;;;;;5079310;28;20439;-83
2022/05/26 00:50:47;;;;;;;59.17;3.20;;;;;;;;;;5082131;28;20459;-83
2022/05/26 00:53:17;;;;;;;59.47;3.67;;;;;;;;;;5081879;28;20455;-83
2022/05/26 00:55:47;;;;;;;59.00;3.27;;;;;;;;;;5082674;28;20999;-83
2022/05/26 00:58:17;;;;;;;58.87;3.03;;;;;;;;;;5080842;28;20448;-83
2022/05/26 01:00:44;;;;;;;59.93;3.17;;;;;;;;;;5081667;28;20452;-84
2022/05/26 01:03:15;;;;;;;59.70;3.13;;;;;;;;;;5081428;28;20439;-83
2022/05/26 01:05:46;;;;;;;58.67;2.90;;;;;;;;;;5080625;28;20420;-83
2022/05/26 01:08:18;;;;;;;58.77;2.77;;;;;;;;;;5081020;28;20436;-84
2022/05/26 01:10:46;;;;;;;58.93;3.20;;;;;;;;;;5081292;28;20447;-83
2022/05/26 01:13:16;;;;;;;59.50;3.40;;;;;;;;;;5080982;28;20927;-83
2022/05/26 01:15:46;;;;;;;59.20;3.50;;;;;;;;;;5081210;28;20578;-83
2022/05/26 01:18:19;;;;;;;59.00;3.00;;;;;;;;;;5079697;28;20526;-83
2022/05/26 01:20:52;;;;;;;59.07;3.20;;;;;;;;;;5080150;28;20459;-83
2022/05/26 01:23:42;;;;;;;59.00;2.90;;;;;;;;;;5079823;28;20451;-83
2022/05/26 01:26:37;;;;;;;59.10;3.00;;;;;;;;;;5094912;28;20408;-84
2022/05/26 01:29:25;;;;;;;58.90;2.70;;;;;;;;;;5090429;28;20453;-84
2022/05/26 01:31:56;;;;;;;59.20;2.90;;;;;;;;;;5065461;28;20447;-83
2022/05/26 01:34:27;;;;;;;59.13;3.10;;;;;;;;;;5083179;28;20533;-84
2022/05/26 01:36:58;;;;;;;59.10;3.13;;;;;;;;;;5074698;28;20453;-83
2022/05/26 01:39:32;;;;;;;58.97;3.00;;;;;;;;;;5074706;28;20472;-83
2022/05/26 01:42:06;;;;;;;58.97;2.73;;;;;;;;;;5075567;28;20970;-83
2022/05/26 01:44:39;;;;;;;58.97;3.00;;;;;;;;;;5075457;28;20459;-84
2022/05/26 01:47:10;;;;;;;59.17;3.10;;;;;;;;;;5075558;28;20463;-83
2022/05/26 01:49:41;;;;;;;59.10;3.00;;;;;;;;;;5074663;28;20460;-83
2022/05/26 01:52:15;;;;;;;58.93;3.00;;;;;;;;;;5075322;28;20951;-83
2022/05/26 01:54:45;;;;;;;59.30;3.30;;;;;;;;;;5074759;28;21068;-83
2022/05/26 01:57:15;;;;;;;58.93;3.00;;;;;;;;;;5073185;28;20456;-84
2022/05/26 01:59:44;;;;;;;59.17;3.00;;;;;;;;;;5074861;28;20513;-83
2022/05/26 02:02:15;;;;;;;59.07;3.10;;;;;;;;;;5075195;28;20467;-83
2022/05/26 02:04:46;;;;;;;59.17;3.00;;;;;;;;;;5075135;28;20989;-83
2022/05/26 02:07:16;;;;;;;59.07;3.00;;;;;;;;;;5075037;28;20451;-83
2022/05/26 02:09:45;;;;;;;58.87;2.80;;;;;;;;;;5075812;28;20502;-83
2022/05/26 02:12:13;;;;;;;59.27;2.97;;;;;;;;;;5075149;28;20443;-83
2022/05/26 02:14:45;;;;;;;58.97;2.80;;;;;;;;;;5075304;28;20490;-83
2022/05/26 02:17:15;;;;;;;59.13;3.00;;;;;;;;;;5075514;28;20487;-83
2022/05/26 02:19:45;;;;;;;63.93;3.60;;;;;;;;;;5075100;28;20527;-83
2022/05/26 02:22:15;;;;;;;60.47;3.57;;;;;;;;;;5075727;28;20450;-83
2022/05/26 02:24:43;;;;;;;58.97;3.10;;;;;;;;;;5076163;28;20470;-83
2022/05/26 02:27:11;;;;;;;58.97;2.97;;;;;;;;;;5075864;28;20435;-83
2022/05/26 02:29:52;;;;;;;59.07;2.97;;;;;;;;;;5076003;28;21006;-83
2022/05/26 02:32:23;;;;;;;59.10;2.80;;;;;;;;;;5075426;28;20435;-83
2022/05/26 02:34:51;;;;;;;58.97;3.00;;;;;;;;;;5075590;28;20896;-82
2022/05/26 02:37:19;;;;;;;59.10;3.20;;;;;;;;;;5078106;28;20523;-83
2022/05/26 02:39:47;;;;;;;58.77;3.00;;;;;;;;;;5078579;28;20533;-83
2022/05/26 02:42:14;;;;;;;58.93;3.17;;;;;;;;;;5080018;28;20453;-83
2022/05/26 02:44:42;;;;;;;59.07;2.90;;;;;;;;;;5079845;28;20456;-83
2022/05/26 02:47:15;;;;;;;59.03;2.90;;;;;;;;;;5080096;28;20459;-83
2022/05/26 02:49:51;;;;;;;59.13;3.00;;;;;;;;;;5079931;28;20545;-83
2022/05/26 02:52:23;;;;;;;76.63;5.17;;;;;;;;;;5079515;28;20423;-83
2022/05/26 02:54:54;;;;;;;59.50;3.50;;;;;;;;;;5080160;28;20560;-83
2022/05/26 02:57:24;;;;;;;59.07;2.73;;;;;;;;;;5072124;28;20462;-83
2022/05/26 02:59:55;;;;;;;58.87;2.90;;;;;;;;;;5079610;28;20460;-83
2022/05/26 03:02:25;;;;;;;58.97;3.10;;;;;;;;;;5080332;28;20416;-83
2022/05/26 03:04:56;;;;;;;58.83;2.90;;;;;;;;;;5079892;28;20443;-83
2022/05/26 03:07:25;;;;;;;59.07;2.90;;;;;;;;;;5078608;28;20432;-83
2022/05/26 03:09:53;;;;;;;59.13;2.60;;;;;;;;;;5079973;28;20456;-83
2022/05/26 03:12:25;;;;;;;58.80;2.90;;;;;;;;;;5080037;28;20454;-83
2022/05/26 03:14:52;;;;;;;59.23;2.90;;;;;;;;;;5080289;28;20566;-83
2022/05/26 03:17:20;;;;;;;59.17;2.80;;;;;;;;;;5080365;28;20443;-83
2022/05/26 03:19:47;;;;;;;59.27;3.20;;;;;;;;;;5079610;28;20459;-83
2022/05/26 03:22:16;;;;;;;59.50;3.10;;;;;;;;;;5075077;28;20451;-82
2022/05/26 03:24:43;;;;;;;59.37;3.00;;;;;;;;;;5073017;28;20451;-82
2022/05/26 03:27:11;;;;;;;59.13;3.20;;;;;;;;;;5073049;28;20470;-82
2022/05/26 03:29:38;;;;;;;59.40;3.10;;;;;;;;;;5072988;28;20490;-82
2022/05/26 03:32:07;;;;;;;59.27;3.00;;;;;;;;;;5073061;28;20443;-83
2022/05/26 03:42:52;;;;;;;58.87;2.90;;;;;;;;;;5080531;28;20422;-82
2022/05/26 03:45:20;;;;;;;59.90;3.20;;;;;;;;;;5080619;28;20447;-82
2022/05/26 03:47:47;;;;;;;59.17;3.13;;;;;;;;;;5079040;28;20981;-82
2022/05/26 03:50:15;;;;;;;59.23;2.70;;;;;;;;;;5073281;28;21002;-82
2022/05/26 03:52:43;;;;;;;62.17;3.57;;;;;;;;;;5073361;28;20541;-82
2022/05/26 03:55:11;;;;;;;58.97;3.00;;;;;;;;;;5073028;28;20553;-82
2022/05/26 03:57:38;;;;;;;58.97;2.90;;;;;;;;;;5072606;28;20877;-82
2022/05/26 04:00:06;;;;;;;58.97;2.80;;;;;;;;;;5072832;28;20889;-82
2022/05/26 04:02:36;;;;;;;59.13;2.77;;;;;;;;;;5073302;28;20456;-82
2022/05/26 04:05:03;;;;;;;59.37;3.07;;;;;;;;;;5073274;28;20853;-82
2022/05/26 04:07:31;;;;;;;58.87;2.70;;;;;;;;;;5072853;28;20442;-82
2022/05/26 04:10:00;;;;;;;58.97;2.80;;;;;;;;;;5073291;28;20828;-82
2022/05/26 04:12:27;;;;;;;58.97;3.03;;;;;;;;;;5072594;28;20447;-82
2022/05/26 04:14:54;;;;;;;59.07;3.00;;;;;;;;;;5072673;28;20475;-82
2022/05/26 04:17:22;;;;;;;58.83;2.90;;;;;;;;;;5072498;28;20443;-82
2022/05/26 04:19:49;;;;;;;58.97;2.67;;;;;;;;;;5071986;28;20995;-82
2022/05/26 04:22:17;;;;;;;59.07;2.87;;;;;;;;;;5072950;28;20510;-82
2022/05/26 04:24:45;;;;;;;59.03;3.00;;;;;;;;;;5072778;28;20451;-82
2022/05/26 04:27:13;;;;;;;59.13;3.40;;;;;;;;;;5072330;28;20489;-82
2022/05/26 04:29:41;;;;;;;59.17;3.20;;;;;;;;;;5072788;28;20455;-82
2022/05/26 04:32:09;;;;;;;59.07;3.40;;;;;;;;;;5072503;28;20439;-82
2022/05/26 04:34:36;;;;;;;58.77;2.90;;;;;;;;;;5074063;28;20478;-82
2022/05/26 04:37:04;;;;;;;58.97;2.80;;;;;;;;;;5072554;28;20459;-83
2022/05/26 04:39:32;;;;;;;59.00;2.90;;;;;;;;;;5054573;28;20483;-82
2022/05/26 04:42:00;;;;;;;58.93;3.10;;;;;;;;;;5072963;28;20455;-82
2022/05/26 04:44:32;;;;;;;58.80;2.93;;;;;;;;;;5072690;28;20478;-82
2022/05/26 04:46:59;;;;;;;58.70;3.00;;;;;;;;;;5073069;28;20482;-82
2022/05/26 04:49:27;;;;;;;58.93;3.00;;;;;;;;;;5072338;28;20474;-82
2022/05/26 04:51:54;;;;;;;58.87;2.80;;;;;;;;;;5072280;28;20455;-82
2022/05/26 04:54:22;;;;;;;58.77;2.67;;;;;;;;;;5072413;28;20497;-83
2022/05/26 04:56:49;;;;;;;58.77;2.80;;;;;;;;;;5073249;28;20466;-82
2022/05/26 04:59:17;;;;;;;59.00;3.00;;;;;;;;;;5071501;28;20935;-83
2022/05/26 05:01:45;;;;;;;60.20;3.67;;;;;;;;;;5073814;28;20850;-82
2022/05/26 05:04:13;;;;;;;58.83;2.87;;;;;;;;;;5073732;28;20497;-83
2022/05/26 05:06:40;;;;;;;58.67;2.63;;;;;;;;;;5073755;28;20439;-82
2022/05/26 05:09:07;;;;;;;58.83;2.73;;;;;;;;;;5073783;28;20473;-82
2022/05/26 05:11:34;;;;;;;58.37;2.77;;;;;;;;;;5074129;28;20417;-82
2022/05/26 05:14:03;;;;;;;59.50;3.00;;;;;;;;;;5072248;28;20476;-83
2022/05/26 05:16:32;;;;;;;58.73;2.80;;;;;;;;;;5072604;28;20554;-85
2022/05/26 05:19:01;;;;;;;58.53;2.47;;;;;;;;;;5072784;28;20517;-83
2022/05/26 05:21:30;;;;;;;58.97;3.10;;;;;;;;;;5071600;28;20497;-83
2022/05/26 05:23:58;;;;;;;59.07;3.30;;;;;;;;;;5075993;28;20443;-83
2022/05/26 05:26:27;;;;;;;58.73;2.80;;;;;;;;;;5076778;28;20474;-83
2022/05/26 05:28:56;;;;;;;58.67;2.60;;;;;;;;;;5072736;28;20472;-83
2022/05/26 05:31:26;;;;;;;58.83;2.67;;;;;;;;;;5076033;28;20458;-86
2022/05/26 05:33:55;;;;;;;58.77;2.80;;;;;;;;;;5076914;28;20450;-82
2022/05/26 05:36:25;;;;;;;58.57;2.57;;;;;;;;;;5080376;28;20440;-82
2022/05/26 05:38:53;;;;;;;58.60;2.77;;;;;;;;;;5081365;28;20979;-80
2022/05/26 05:41:21;;;;;;;58.67;3.00;;;;;;;;;;5079662;28;20985;-84
2022/05/26 05:43:49;;;;;;;58.57;2.70;;;;;;;;;;5080672;28;20803;-82
2022/05/26 05:46:19;;;;;;;96.47;3.47;;;;;;;;;;5078301;28;20436;-84
2022/05/26 05:48:47;;;;;;;58.70;2.70;;;;;;;;;;5077041;28;20893;-84
2022/05/26 05:51:14;;;;;;;58.70;2.80;;;;;;;;;;5081133;28;20487;-82
2022/05/26 05:53:44;;;;;;;58.40;2.90;;;;;;;;;;5082276;28;20496;-84
2022/05/26 05:56:11;;;;;;;58.57;2.63;;;;;;;;;;5079450;28;20456;-84
2022/05/26 05:58:38;;;;;;;58.47;3.00;;;;;;;;;;5079497;28;20445;-83
2022/05/26 06:01:07;;;;;;;58.57;2.60;;;;;;;;;;5079616;28;20805;-82
2022/05/26 06:03:38;;;;;;;58.53;2.70;;;;;;;;;;5081177;28;20531;-83
2022/05/26 06:06:07;;;;;;;58.83;2.90;;;;;;;;;;5081322;28;20444;-82
2022/05/26 06:08:34;;;;;;;58.97;2.83;;;;;;;;;;5079543;28;20960;-84
2022/05/26 06:11:03;;;;;;;58.37;2.60;;;;;;;;;;5077398;28;20848;-85
2022/05/26 06:13:31;;;;;;;58.47;2.50;;;;;;;;;;5080919;28;20438;-85
2022/05/26 06:15:59;;;;;;;58.73;2.73;;;;;;;;;;5096809;28;20477;-86
2022/05/26 06:18:26;;;;;;;59.23;3.30;;;;;;;;;;5088651;28;20447;-84
2022/05/26 06:21:01;;;;;;;58.87;2.57;;;;;;;;;;5089377;28;20473;-83
2022/05/26 06:23:28;;;;;;;58.73;2.60;;;;;;;;;;5094089;28;20442;-83
2022/05/26 06:25:55;;;;;;;58.47;2.70;;;;;;;;;;5091911;28;20477;-84
2022/05/26 06:31:08;;;;;;;58.57;2.73;;;;;;;;;;5063771;28;20775;-84
2022/05/26 06:39:07;;;;;;;58.57;2.60;;;;;;;;;;5073686;28;20977;-83
2022/05/26 06:44:20;;;;;;;58.73;2.70;;;;;;;;;;5066958;28;20543;-81
2022/05/26 06:46:47;;;;;;;58.97;2.70;;;;;;;;;;5074739;28;20438;-80
2022/05/26 06:49:14;;;;;;;58.17;2.60;;;;;;;;;;5074127;28;20475;-85
2022/05/26 06:51:43;;;;;;;58.67;2.70;;;;;;;;;;5074839;28;20865;-83
2022/05/26 06:54:11;;;;;;;58.47;2.50;;;;;;;;;;5074049;28;20439;-84
2022/05/26 06:56:38;;;;;;;58.77;2.60;;;;;;;;;;5074118;28;20431;-83
2022/05/26 06:59:06;;;;;;;58.67;2.70;;;;;;;;;;5073855;28;20455;-82
2022/05/26 07:01:34;;;;;;;58.70;2.70;;;;;;;;;;5074328;28;20453;-84
2022/05/26 07:04:02;;;;;;;58.13;2.60;;;;;;;;;;5073980;28;20442;-82
2022/05/26 07:06:30;;;;;;;65.10;3.13;;;;;;;;;;5074110;28;20442;-85
2022/05/26 07:08:57;;;;;;;58.37;2.50;;;;;;;;;;5073088;28;20462;-85
2022/05/26 07:11:24;;;;;;;58.67;2.90;;;;;;;;;;5074514;28;20980;-85
2022/05/26 07:13:52;;;;;;;58.27;2.40;;;;;;;;;;5074864;28;20853;-82
2022/05/26 07:16:19;;;;;;;58.97;2.90;;;;;;;;;;5073715;28;20497;-84
2022/05/26 07:18:50;;;;;;;58.43;2.57;;;;;;;;;;5073201;28;20499;-84
2022/05/26 07:21:18;;;;;;;58.23;2.40;;;;;;;;;;5074958;28;20494;-84
2022/05/26 07:23:45;;;;;;;58.27;2.63;;;;;;;;;;5073991;28;20447;-83
2022/05/26 07:26:13;;;;;;;58.60;2.40;;;;;;;;;;5074678;28;20947;-84
2022/05/26 07:28:41;;;;;;;58.50;2.40;;;;;;;;;;5074030;28;20852;-82
2022/05/26 07:31:09;;;;;;;58.47;2.37;;;;;;;;;;5075317;28;20509;-83
2022/05/26 07:33:36;;;;;;;58.50;2.47;;;;;;;;;;5073693;28;20443;-85
2022/05/26 07:36:05;;;;;;;58.23;2.50;;;;;;;;;;5074050;28;21007;-84
2022/05/26 07:41:20;;;;;;;60.60;2.90;;;;;;;;;;5073937;28;20513;-84
2022/05/26 07:43:52;;;;;;;59.00;2.50;;;;;;;;;;5073793;28;20454;-83
2022/05/26 07:46:20;;;;;;;58.33;2.50;;;;;;;;;;5074297;28;20852;-84
2022/05/26 07:48:48;;;;;;;58.67;2.20;;;;;;;;;;5075872;28;20524;-85
2022/05/26 07:51:19;;;;;;;58.77;2.53;;;;;;;;;;5077843;28;20441;-84
2022/05/26 07:53:46;;;;;;;57.93;2.40;;;;;;;;;;5074963;28;20478;-83
2022/05/26 07:56:14;;;;;;;58.47;2.37;;;;;;;;;;5075442;28;20487;-83
2022/05/26 07:58:42;;;;;;;58.00;2.60;;;;;;;;;;5076088;28;20457;-85
2022/05/26 08:01:09;;;;;;;58.10;2.20;;;;;;;;;;5076604;28;21010;-83
2022/05/26 08:03:37;;;;;;;58.60;2.50;;;;;;;;;;5076807;28;20446;-84
2022/05/26 08:06:04;;;;;;;57.97;2.50;;;;;;;;;;5074786;28;20440;-82
2022/05/26 08:08:34;;;;;;;58.50;2.40;;;;;;;;;;5073454;28;20465;-82
2022/05/26 08:11:01;;;;;;;60.23;2.60;;;;;;;;;;5072432;28;20434;-82
2022/05/26 08:13:28;;;;;;;58.17;2.63;;;;;;;;;;5073254;28;20594;-80
2022/05/26 08:15:55;;;;;;;58.07;2.20;;;;;;;;;;5072781;28;20487;-81
2022/05/26 08:18:23;;;;;;;58.67;2.70;;;;;;;;;;5072639;28;20449;-81
2022/05/26 08:20:50;;;;;;;59.53;2.40;;;;;;;;;;5072954;28;20465;-81
2022/05/26 08:23:17;;;;;;;58.47;2.70;;;;;;;;;;5073066;28;20440;-81
2022/05/26 08:25:46;;;;;;;58.23;2.40;;;;;;;;;;5072994;28;20446;-82
2022/05/26 08:28:14;;;;;;;58.67;2.50;;;;;;;;;;5072332;28;20438;-83
2022/05/26 08:30:41;;;;;;;58.30;2.50;;;;;;;;;;5073841;28;20491;-83
2022/05/26 08:33:08;;;;;;;58.97;2.53;;;;;;;;;;5072880;28;20445;-83
2022/05/26 08:35:36;;;;;;;58.60;2.70;;;;;;;;;;5074318;28;20477;-83
2022/05/26 08:38:03;;;;;;;58.13;2.60;;;;;;;;;;5074640;28;20469;-82
2022/05/26 08:40:35;;;;;;;58.67;2.60;;;;;;;;;;5075865;28;20520;-82
2022/05/26 08:43:04;;;;;;;59.40;2.70;;;;;;;;;;5076009;28;20888;-83
2022/05/26 08:45:34;;;;;;;58.43;2.53;;;;;;;;;;5076414;28;20444;-82
2022/05/26 08:48:01;;;;;;;58.73;2.70;;;;;;;;;;5077112;28;20443;-82
2022/05/26 08:50:30;;;;;;;58.57;2.80;;;;;;;;;;5075457;28;20481;-83
2022/05/26 08:52:58;;;;;;;58.57;2.50;;;;;;;;;;5073350;28;20440;-82
2022/05/26 08:55:26;;;;;;;58.23;2.63;;;;;;;;;;5074084;28;21039;-82
2022/05/26 08:57:55;;;;;;;57.97;2.47;;;;;;;;;;5072864;28;20439;-82
2022/05/26 09:00:25;;;;;;;58.17;2.40;;;;;;;;;;5073937;28;20964;-82
2022/05/26 09:02:55;;;;;;;58.17;2.20;;;;;;;;;;5072722;28;20441;-82
2022/05/26 09:05:22;;;;;;;58.30;2.13;;;;;;;;;;5076478;28;20445;-83
2022/05/26 09:13:33;;;;;;;59.30;2.40;;;;;;;;;;5077511;28;20424;-82
2022/05/26 09:16:05;;;;;;;58.87;2.43;;;;;;;;;;5075336;28;20478;-83
2022/05/26 09:18:33;;;;;;;58.13;2.17;;;;;;;;;;5077837;28;20452;-83
2022/05/26 09:21:14;;;;;;;58.00;2.27;;;;;;;;;;5075549;28;20555;-83
2022/05/26 09:23:44;;;;;;;59.17;2.60;;;;;;;;;;5077575;28;21098;-83
2022/05/26 09:26:13;;;;;;;58.07;2.33;;;;;;;;;;5076015;28;20458;-83
2022/05/26 09:28:44;;;;;;;58.57;2.50;;;;;;;;;;5076856;28;20447;-84
2022/05/26 09:31:21;;;;;;;58.90;2.87;;;;;;;;;;5076149;28;20576;-82
2022/05/26 09:34:00;;;;;;;58.50;2.60;;;;;;;;;;5076609;28;20940;-83
2022/05/26 09:36:29;;;;;;;58.40;2.20;;;;;;;;;;5077799;28;20534;-84
2022/05/26 09:38:57;;;;;;;57.67;2.40;;;;;;;;;;5076798;28;20460;-82
2022/05/26 09:41:25;;;;;;;60.30;2.90;;;;;;;;;;5076811;28;20449;-82
2022/05/26 09:43:55;;;;;;;58.50;2.40;;;;;;;;;;5077580;28;20457;-82
2022/05/26 09:46:26;;;;;;;58.30;2.33;;;;;;;;;;5077887;28;20436;-82
2022/05/26 09:48:54;;;;;;;59.80;2.60;;;;;;;;;;5076485;28;20459;-82
2022/05/26 09:51:24;;;;;;;59.07;2.60;;;;;;;;;;5079568;28;20816;-82
2022/05/26 09:53:52;;;;;;;58.33;2.60;;;;;;;;;;5080224;28;20471;-82
2022/05/26 09:56:29;;;;;;;58.20;2.33;;;;;;;;;;5078333;28;20485;-82
2022/05/26 09:58:56;;;;;;;58.30;2.50;;;;;;;;;;5075036;28;20920;-82
2022/05/26 10:01:37;;;;;;;58.17;2.50;;;;;;;;;;5074933;28;20450;-83
2022/05/26 10:04:07;;;;;;;61.47;2.40;;;;;;;;;;5076276;28;20457;-83
2022/05/26 10:06:37;;;;;;;58.27;2.20;;;;;;;;;;5078216;28;20946;-81
2022/05/26 10:09:12;;;;;;;57.97;2.40;;;;;;;;;;5078874;28;20454;-82
2022/05/26 10:11:46;;;;;;;58.23;2.10;;;;;;;;;;5079181;28;20451;-84
2022/05/26 10:14:26;;;;;;;58.40;2.40;;;;;;;;;;5079634;28;20479;-83
2022/05/26 10:16:57;;;;;;;57.97;2.40;;;;;;;;;;5076504;28;20481;-82
2022/05/26 10:19:29;;;;;;;58.00;2.53;;;;;;;;;;5077419;28;20950;-83
2022/05/26 10:22:08;;;;;;;57.93;2.17;;;;;;;;;;5076663;28;20821;-82
2022/05/26 10:24:53;;;;;;;58.27;2.20;;;;;;;;;;5079695;28;20430;-83
2022/05/26 10:27:36;;;;;;;58.40;2.20;;;;;;;;;;5035347;28;20491;-83
2022/05/26 10:30:07;;;;;;;58.90;2.80;;;;;;;;;;5075800;28;20508;-83
2022/05/26 10:32:41;;;;;;;57.83;2.20;;;;;;;;;;5074004;28;20927;-83
2022/05/26 10:35:25;;;;;;;57.97;2.27;;;;;;;;;;5073280;28;20487;-82
2022/05/26 10:37:59;;;;;;;58.23;2.17;;;;;;;;;;5074238;28;20507;-83
2022/05/26 10:40:32;;;;;;;58.17;2.43;;;;;;;;;;5074611;28;20875;-82
2022/05/26 10:43:03;;;;;;;58.67;2.40;;;;;;;;;;5076386;28;20969;-82
2022/05/26 10:45:33;;;;;;;58.17;2.30;;;;;;;;;;5074756;28;20527;-82
2022/05/26 10:48:07;;;;;;;58.23;2.37;;;;;;;;;;5073331;28;21001;-84
2022/05/26 10:50:38;;;;;;;58.07;2.20;;;;;;;;;;5074560;28;20991;-83
2022/05/26 10:53:10;;;;;;;58.37;2.33;;;;;;;;;;5074264;28;20458;-83
2022/05/26 10:55:43;;;;;;;58.60;2.67;;;;;;;;;;5075373;28;20479;-83
2022/05/26 10:58:12;;;;;;;58.40;2.10;;;;;;;;;;5076116;28;20470;-82
2022/05/26 11:00:40;;;;;;;57.97;2.30;;;;;;;;;;5076396;28;20466;-84
2022/05/26 11:03:12;;;;;;;58.20;2.90;;;;;;;;;;5075772;28;20462;-86
2022/05/26 11:05:42;;;;;;;59.00;2.93;;;;;;;;;;5076064;28;20451;-83
2022/05/26 11:08:14;;;;;;;58.10;2.60;;;;;;;;;;5077143;28;20438;-83
2022/05/26 11:10:43;;;;;;;57.63;2.07;;;;;;;;;;5074240;28;20485;-83
2022/05/26 11:13:15;;;;;;;58.33;2.27;;;;;;;;;;5074213;28;20444;-84
2022/05/26 11:18:35;;;;;;;58.50;2.57;;;;;;;;;;5088955;28;20428;-82
2022/05/26 11:21:04;;;;;;;58.30;2.67;;;;;;;;;;5090882;28;20439;-83
2022/05/26 11:23:33;;;;;;;57.87;2.13;;;;;;;;;;5088009;28;20467;-83
2022/05/26 11:26:02;;;;;;;58.10;2.50;;;;;;;;;;5076386;28;20503;-83
2022/05/26 11:28:32;;;;;;;58.90;2.80;;;;;;;;;;5072878;28;20447;-83
2022/05/26 11:36:39;;;;;;;58.43;2.57;;;;;;;;;;5073586;28;20496;-84
2022/05/26 11:39:08;;;;;;;57.97;2.07;;;;;;;;;;5072928;28;20890;-82
2022/05/26 11:41:36;;;;;;;58.63;2.80;;;;;;;;;;5073054;28;20545;-82
2022/05/26 11:44:05;;;;;;;58.07;2.13;;;;;;;;;;5073117;28;20440;-83
2022/05/26 11:46:47;;;;;;;57.67;2.60;;;;;;;;;;5072828;28;20862;-85
2022/05/26 11:49:42;;;;;;;58.50;2.40;;;;;;;;;;5072573;28;20959;-82
2022/05/26 11:52:12;;;;;;;58.20;2.30;;;;;;;;;;5072840;28;20439;-82
2022/05/26 11:55:01;;;;;;;58.50;2.90;;;;;;;;;;5073143;28;20485;-83
2022/05/26 11:57:35;;;;;;;58.13;2.23;;;;;;;;;;5072385;28;20540;-84
2022/05/26 12:00:18;;;;;;;58.60;2.50;;;;;;;;;;5072724;28;20549;-83
2022/05/26 12:02:45;;;;;;;58.17;2.40;;;;;;;;;;5073546;28;20431;-82
2022/05/26 12:05:31;;;;;;;58.40;2.60;;;;;;;;;;5073694;28;20519;-82
2022/05/26 12:08:03;;;;;;;58.60;2.60;;;;;;;;;;5074070;28;20726;-83
2022/05/26 12:10:31;;;;;;;58.47;2.43;;;;;;;;;;5074151;28;20473;-83
2022/05/26 12:13:17;;;;;;;58.07;2.40;;;;;;;;;;5073952;28;20436;-83
2022/05/26 12:15:59;;;;;;;58.30;2.40;;;;;;;;;;5073489;28;20441;-83
2022/05/26 12:18:37;;;;;;;58.30;2.07;;;;;;;;;;5073273;28;20450;-82
2022/05/26 12:21:12;;;;;;;57.97;2.40;;;;;;;;;;5072710;28;20986;-83
2022/05/26 12:23:42;;;;;;;58.90;2.70;;;;;;;;;;5073603;28;20457;-84
2022/05/26 12:26:30;;;;;;;61.90;2.73;;;;;;;;;;5072960;28;20865;-83
2022/05/26 12:29:19;;;;;;;58.47;2.60;;;;;;;;;;5068252;28;20536;-82
2022/05/26 12:32:01;;;;;;;58.27;2.40;;;;;;;;;;5074519;28;20871;-83
2022/05/26 12:34:30;;;;;;;59.37;2.97;;;;;;;;;;5072684;28;20457;-83
2022/05/26 12:37:02;;;;;;;58.20;2.50;;;;;;;;;;5074723;28;20476;-84
2022/05/26 12:39:56;;;;;;;58.00;2.47;;;;;;;;;;5074517;28;20838;-83
2022/05/26 12:42:36;;;;;;;58.37;2.80;;;;;;;;;;5074053;28;20486;-83
2022/05/26 12:45:15;;;;;;;58.50;2.97;;;;;;;;;;5075550;28;20455;-82
2022/05/26 12:47:55;;;;;;;58.40;2.40;;;;;;;;;;5076073;28;20433;-82
2022/05/26 12:50:24;;;;;;;58.17;2.20;;;;;;;;;;5075935;28;20473;-85
2022/05/26 12:53:01;;;;;;;58.60;2.43;;;;;;;;;;5073760;28;20498;-82
2022/05/26 12:55:30;;;;;;;57.47;2.20;;;;;;;;;;5073750;28;20439;-84
2022/05/26 12:58:03;;;;;;;57.87;2.37;;;;;;;;;;5075400;28;20542;-84
2022/05/26 13:00:32;;;;;;;58.17;2.50;;;;;;;;;;5075294;28;20477;-83
2022/05/26 13:03:01;;;;;;;58.07;2.53;;;;;;;;;;5074965;28;20437;-82
2022/05/26 13:05:29;;;;;;;60.10;2.80;;;;;;;;;;5073586;28;20499;-83
2022/05/26 13:07:57;;;;;;;58.30;2.30;;;;;;;;;;5071432;28;20499;-82
2022/05/26 13:10:25;;;;;;;58.90;2.50;;;;;;;;;;5071766;28;20485;-83
2022/05/26 13:12:53;;;;;;;58.27;2.60;;;;;;;;;;5071601;28;20431;-83
2022/05/26 13:15:27;;;;;;;58.07;2.30;;;;;;;;;;5071820;28;20439;-83
2022/05/26 13:17:55;;;;;;;57.90;2.60;;;;;;;;;;5071651;28;20483;-84
2022/05/26 13:20:24;;;;;;;59.30;3.30;;;;;;;;;;5072931;28;20455;-85
2022/05/26 13:22:51;;;;;;;58.90;2.70;;;;;;;;;;5076121;28;21008;-82
2022/05/26 13:25:24;;;;;;;58.80;2.67;;;;;;;;;;5075435;28;20459;-83
2022/05/26 13:27:55;;;;;;;57.60;2.20;;;;;;;;;;5075566;28;20434;-84
2022/05/26 13:33:12;;;;;;;58.43;2.37;;;;;;;;;;5074985;28;20434;-84
2022/05/26 13:35:43;;;;;;;58.77;2.50;;;;;;;;;;5073135;28;20440;-84
2022/05/26 13:38:23;;;;;;;57.90;2.57;;;;;;;;;;5072198;28;20478;-84
2022/05/26 13:40:51;;;;;;;58.00;2.10;;;;;;;;;;5072376;28;20882;-83
2022/05/26 13:43:19;;;;;;;57.97;2.23;;;;;;;;;;5073620;28;20434;-85
2022/05/26 13:45:46;;;;;;;58.50;2.40;;;;;;;;;;5074189;28;20940;-82
2022/05/26 13:48:30;;;;;;;58.37;2.30;;;;;;;;;;5073131;28;20448;-84
2022/05/26 13:50:59;;;;;;;58.27;2.47;;;;;;;;;;5073242;28;20461;-84
2022/05/26 13:53:26;;;;;;;58.27;2.50;;;;;;;;;;5076960;28;20968;-84
2022/05/26 13:55:56;;;;;;;57.77;2.27;;;;;;;;;;5077317;28;20430;-82
2022/05/26 13:58:24;;;;;;;58.57;2.33;;;;;;;;;;5077039;28;20483;-83
2022/05/26 14:00:59;;;;;;;58.20;2.50;;;;;;;;;;5076728;28;20613;-83
2022/05/26 14:03:28;;;;;;;58.17;2.30;;;;;;;;;;5077248;28;20997;-83
2022/05/26 14:06:01;;;;;;;58.30;2.33;;;;;;;;;;5080177;28;20560;-83
2022/05/26 14:08:29;;;;;;;58.10;2.60;;;;;;;;;;5077690;28;20441;-82
2022/05/26 14:10:57;;;;;;;59.57;3.17;;;;;;;;;;5078738;28;20490;-82
2022/05/26 14:13:26;;;;;;;63.20;2.80;;;;;;;;;;5078856;28;20437;-83
2022/05/26 14:15:55;;;;;;;58.17;2.30;;;;;;;;;;5077411;28;20429;-82
2022/05/26 14:18:24;;;;;;;58.67;2.50;;;;;;;;;;5078038;28;21089;-83
2022/05/26 14:21:04;;;;;;;58.20;2.30;;;;;;;;;;5082105;28;20471;-83
2022/05/26 14:23:32;;;;;;;57.97;2.47;;;;;;;;;;5087795;28;20455;-81
2022/05/26 14:26:00;;;;;;;58.03;2.50;;;;;;;;;;5089534;28;21046;-84
2022/05/26 14:28:35;;;;;;;58.50;2.50;;;;;;;;;;5081020;28;20445;-83
2022/05/26 14:31:03;;;;;;;58.03;2.20;;;;;;;;;;5079001;28;20859;-83
2022/05/26 14:33:32;;;;;;;58.30;2.30;;;;;;;;;;5079305;28;20438;-82
2022/05/26 14:35:59;;;;;;;58.00;2.50;;;;;;;;;;5081607;28;20446;-83
2022/05/26 14:38:28;;;;;;;58.63;2.40;;;;;;;;;;5079557;28;20483;-83
2022/05/26 14:40:56;;;;;;;58.37;2.60;;;;;;;;;;5079497;28;20487;-83
2022/05/26 14:43:25;;;;;;;57.73;2.50;;;;;;;;;;5078843;28;20500;-83
2022/05/26 14:45:54;;;;;;;57.70;2.43;;;;;;;;;;5079861;28;21181;-84
2022/05/26 14:48:21;;;;;;;58.23;2.73;;;;;;;;;;5079803;28;20443;-83
2022/05/26 14:50:49;;;;;;;57.63;2.30;;;;;;;;;;5079019;28;20993;-84
2022/05/26 14:55:26;;;;;;;58.30;2.50;;;;;;;;;;5078283;28;20481;-84
2022/05/26 14:56:04;;;;;;;59.00;2.70;;;;;;;;;;5077524;28;20439;-85
2022/05/26 14:58:32;;;;;;;58.10;2.20;;;;;;;;;;5076060;28;20515;-84
2022/05/26 15:01:00;;;;;;;58.13;2.20;;;;;;;;;;5076429;28;20884;-83
2022/05/26 15:03:27;;;;;;;57.90;2.30;;;;;;;;;;5075620;28;20475;-85
2022/05/26 15:05:55;;;;;;;58.40;2.43;;;;;;;;;;5075000;28;20500;-84
2022/05/26 15:08:25;;;;;;;57.97;2.13;;;;;;;;;;5073636;28;20440;-85
2022/05/26 15:10:52;;;;;;;58.77;2.50;;;;;;;;;;5074594;28;20455;-84
2022/05/26 15:13:22;;;;;;;58.30;2.10;;;;;;;;;;5066582;28;20456;-86
2022/05/26 15:15:49;;;;;;;57.90;2.07;;;;;;;;;;5074639;28;20459;-85
2022/05/26 15:18:17;;;;;;;58.30;2.30;;;;;;;;;;5074542;28;20475;-84
2022/05/26 15:20:44;;;;;;;58.33;2.50;;;;;;;;;;5076689;28;20475;-83
2022/05/26 15:23:11;;;;;;;58.27;2.60;;;;;;;;;;5075327;28;20439;-84
2022/05/26 15:26:07;;;;;;;58.20;2.33;;;;;;;;;;5075583;28;20553;-85
2022/05/26 15:28:27;;;;;;;58.17;2.40;;;;;;;;;;5073469;28;20447;-85